Time;durP1;ratioP1;P1;durP2;ratioP2;P2;SDS_P1;SDS_P2;PMS_P1;PMS_P2;Temp;Humidity;BMP_temperature;BMP_pressure;BME280_temperature;BME280_humidity;BME280_pressure;Samples;Min_cycle;Max_cycle;Signal;HPM_P1;HPM_P2
2021/04/14 00:02:35;;;;;;;26.20;13.73;;;1.30;99.90;;;;;;5093467;28;20270;-70
2021/04/14 00:05:24;;;;;;;26.40;14.57;;;1.30;99.90;;;;;;5093592;28;20210;-71
2021/04/14 00:08:11;;;;;;;36.17;13.83;;;1.30;99.90;;;;;;5093525;28;20249;-70
2021/04/14 00:10:58;;;;;;;26.93;13.63;;;1.30;99.90;;;;;;5087264;28;20199;-70
2021/04/14 00:13:46;;;;;;;29.23;14.60;;;1.30;99.90;;;;;;5094080;28;20658;-70
2021/04/14 00:16:34;;;;;;;31.93;15.83;;;1.30;99.90;;;;;;5092214;28;20200;-71
2021/04/14 00:19:21;;;;;;;28.90;15.90;;;1.30;99.90;;;;;;5086082;28;20211;-70
2021/04/14 00:22:08;;;;;;;28.57;14.40;;;1.30;99.90;;;;;;5092476;28;20566;-71
2021/04/14 00:24:56;;;;;;;32.17;15.67;;;1.30;99.90;;;;;;5091140;28;20709;-71
2021/04/14 00:27:43;;;;;;;31.03;16.40;;;1.30;99.90;;;;;;5092600;28;20729;-71
2021/04/14 00:30:31;;;;;;;28.80;16.30;;;1.30;99.90;;;;;;5092980;28;20196;-71
2021/04/14 00:33:18;;;;;;;30.57;16.07;;;1.30;99.90;;;;;;5092392;28;20651;-71
2021/04/14 00:36:06;;;;;;;31.63;15.73;;;1.30;99.90;;;;;;5092859;28;20238;-71
2021/04/14 00:38:52;;;;;;;29.33;16.10;;;1.30;99.90;;;;;;5092052;28;20936;-70
2021/04/14 00:41:39;;;;;;;35.37;16.77;;;1.30;99.90;;;;;;5092526;28;20301;-71
2021/04/14 00:44:26;;;;;;;33.13;17.70;;;1.20;99.90;;;;;;5086391;28;20230;-71
2021/04/14 00:47:15;;;;;;;29.83;17.20;;;1.20;99.90;;;;;;5083459;28;20317;-71
2021/04/14 00:50:02;;;;;;;33.33;16.63;;;1.20;99.90;;;;;;5092590;28;20223;-71
2021/04/14 00:52:49;;;;;;;29.87;16.37;;;1.20;99.90;;;;;;5087404;28;20269;-71
2021/04/14 00:55:36;;;;;;;32.33;16.50;;;1.20;99.90;;;;;;5072254;28;20291;-71
2021/04/14 00:58:24;;;;;;;32.70;16.83;;;1.20;99.90;;;;;;5072676;28;20219;-71
2021/04/14 01:01:10;;;;;;;28.87;16.57;;;1.20;99.90;;;;;;5063406;28;20204;-71
2021/04/14 01:03:59;;;;;;;31.73;17.37;;;1.20;99.90;;;;;;5072116;28;20228;-71
2021/04/14 01:06:46;;;;;;;33.37;17.23;;;1.20;99.90;;;;;;5072361;28;20281;-72
2021/04/14 01:09:33;;;;;;;33.87;18.20;;;1.20;99.90;;;;;;5072010;28;20201;-71
2021/04/14 01:12:20;;;;;;;31.73;16.73;;;1.20;99.90;;;;;;5064505;28;20248;-71
2021/04/14 01:15:09;;;;;;;35.47;17.47;;;1.30;99.90;;;;;;5070862;28;20257;-71
2021/04/14 01:17:56;;;;;;;33.20;17.07;;;1.30;99.90;;;;;;5062683;28;20203;-71
2021/04/14 01:20:44;;;;;;;30.47;15.83;;;1.30;99.90;;;;;;5058326;28;20682;-71
2021/04/14 01:23:32;;;;;;;30.17;15.50;;;1.30;99.90;;;;;;5070925;28;20283;-71
2021/04/14 01:26:19;;;;;;;28.93;15.33;;;1.30;99.90;;;;;;5064113;28;20649;-71
2021/04/14 01:29:06;;;;;;;28.50;15.10;;;1.30;99.90;;;;;;5071014;28;20262;-71
2021/04/14 01:31:53;;;;;;;26.67;14.13;;;1.30;99.90;;;;;;5070968;28;20249;-71
2021/04/14 01:34:41;;;;;;;23.73;13.10;;;1.30;99.90;;;;;;5070452;28;20196;-71
2021/04/14 01:37:28;;;;;;;27.87;14.50;;;1.30;99.90;;;;;;5070875;28;20204;-71
2021/04/14 01:40:17;;;;;;;24.53;12.63;;;1.30;99.90;;;;;;5070207;28;20207;-71
2021/04/14 01:43:04;;;;;;;24.67;12.53;;;1.30;99.90;;;;;;5069840;28;20196;-72
2021/04/14 01:45:52;;;;;;;19.73;12.03;;;1.30;99.90;;;;;;5069473;28;20203;-72
2021/04/14 01:48:39;;;;;;;20.27;11.50;;;1.30;99.90;;;;;;5069932;28;20204;-71
2021/04/14 01:51:26;;;;;;;22.07;11.57;;;1.30;99.90;;;;;;5068738;28;20235;-72
2021/04/14 01:54:13;;;;;;;21.43;12.30;;;1.20;99.90;;;;;;5047066;28;20255;-72
2021/04/14 01:57:01;;;;;;;23.60;12.23;;;1.20;99.90;;;;;;5070488;28;20211;-72
2021/04/14 01:59:49;;;;;;;20.90;12.47;;;1.20;99.90;;;;;;5070337;28;20236;-72
2021/04/14 02:02:36;;;;;;;18.63;10.83;;;1.20;99.90;;;;;;5069533;28;20254;-72
2021/04/14 02:05:25;;;;;;;19.50;11.67;;;1.20;99.90;;;;;;5067491;28;20208;-72
2021/04/14 02:08:12;;;;;;;19.07;10.67;;;1.20;99.90;;;;;;5070786;28;20193;-72
2021/04/14 02:10:59;;;;;;;19.93;10.40;;;1.20;99.90;;;;;;5070929;28;20223;-72
2021/04/14 02:13:47;;;;;;;17.90;10.57;;;1.20;99.90;;;;;;5071681;28;20212;-72
2021/04/14 02:16:34;;;;;;;18.17;9.93;;;1.20;99.90;;;;;;5070066;28;20205;-72
2021/04/14 02:19:22;;;;;;;17.47;10.10;;;1.30;99.90;;;;;;5069858;28;20196;-72
2021/04/14 02:22:09;;;;;;;13.73;9.17;;;1.30;99.90;;;;;;5070515;28;20749;-72
2021/04/14 02:24:56;;;;;;;13.97;7.50;;;1.20;99.90;;;;;;5068255;28;20566;-71
2021/04/14 02:27:43;;;;;;;14.87;8.43;;;1.20;99.90;;;;;;5070053;28;20246;-72
2021/04/14 02:30:31;;;;;;;14.30;8.03;;;1.20;99.90;;;;;;5070479;28;20254;-72
2021/04/14 02:33:19;;;;;;;13.80;8.83;;;1.20;99.90;;;;;;5069435;28;20282;-72
2021/04/14 02:36:07;;;;;;;13.77;8.10;;;1.10;99.90;;;;;;5064250;28;20670;-72
2021/04/14 02:38:54;;;;;;;15.23;8.30;;;1.10;99.90;;;;;;5061020;28;20216;-72
2021/04/14 02:41:41;;;;;;;12.80;7.73;;;1.10;99.90;;;;;;5064676;28;20275;-72
2021/04/14 02:44:28;;;;;;;12.40;7.73;;;1.20;99.90;;;;;;5064666;28;20631;-72
2021/04/14 02:47:16;;;;;;;13.90;7.23;;;1.20;99.90;;;;;;5070056;28;20196;-72
2021/04/14 02:50:04;;;;;;;15.43;7.57;;;1.20;99.90;;;;;;5069839;28;20235;-72
2021/04/14 02:52:51;;;;;;;12.10;7.37;;;1.20;99.90;;;;;;5069872;28;20216;-72
2021/04/14 02:55:38;;;;;;;12.13;6.80;;;1.20;99.90;;;;;;5064170;28;20227;-72
2021/04/14 02:58:26;;;;;;;12.83;6.87;;;1.20;99.90;;;;;;5067957;28;20662;-72
2021/04/14 03:01:13;;;;;;;11.77;7.00;;;1.20;99.90;;;;;;5068147;28;20277;-72
2021/04/14 03:04:06;;;;;;;12.60;7.93;;;1.20;99.90;;;;;;5066286;28;20651;-72
2021/04/14 03:06:54;;;;;;;13.33;7.43;;;1.20;99.90;;;;;;5069509;28;20216;-72
2021/04/14 03:09:41;;;;;;;12.27;6.70;;;1.20;99.90;;;;;;5069537;28;20334;-72
2021/04/14 03:12:28;;;;;;;12.07;7.27;;;1.20;99.90;;;;;;5061866;28;20307;-72
2021/04/14 03:15:16;;;;;;;9.80;6.57;;;1.20;99.90;;;;;;5068850;28;20295;-72
2021/04/14 03:18:03;;;;;;;10.63;6.87;;;1.20;99.90;;;;;;5057127;28;20630;-72
2021/04/14 03:20:52;;;;;;;11.47;7.13;;;1.20;99.90;;;;;;5068911;28;20264;-72
2021/04/14 03:23:39;;;;;;;10.73;6.20;;;1.20;99.90;;;;;;5069318;28;20191;-73
2021/04/14 03:26:26;;;;;;;12.30;6.77;;;1.10;99.90;;;;;;5067377;28;20281;-72
2021/04/14 03:29:13;;;;;;;9.27;5.90;;;1.10;99.90;;;;;;5061620;28;20200;-72
2021/04/14 03:32:00;;;;;;;10.77;6.20;;;1.10;99.90;;;;;;5068883;28;20558;-72
2021/04/14 03:34:47;;;;;;;9.97;5.80;;;1.10;99.90;;;;;;5068344;28;20192;-73
2021/04/14 03:37:35;;;;;;;8.63;5.40;;;1.10;99.90;;;;;;5068295;28;20648;-73
2021/04/14 03:40:22;;;;;;;8.87;5.70;;;1.20;99.90;;;;;;5063874;28;20204;-72
2021/04/14 03:43:09;;;;;;;8.57;5.40;;;1.20;99.90;;;;;;5068328;28;20307;-71
2021/04/14 03:45:58;;;;;;;7.03;5.50;;;1.20;99.90;;;;;;5069444;28;20193;-71
2021/04/14 03:48:46;;;;;;;10.53;6.40;;;1.20;99.90;;;;;;5069433;28;20215;-71
2021/04/14 03:51:33;;;;;;;8.43;5.70;;;1.20;99.90;;;;;;5069012;28;20287;-71
2021/04/14 03:54:21;;;;;;;10.87;6.17;;;1.20;99.90;;;;;;5072934;28;20228;-71
2021/04/14 03:57:09;;;;;;;10.93;6.23;;;1.20;99.90;;;;;;5089904;28;20196;-71
2021/04/14 03:59:56;;;;;;;9.47;5.80;;;1.20;99.90;;;;;;5090373;28;20192;-71
2021/04/14 04:02:43;;;;;;;8.90;5.93;;;1.20;99.90;;;;;;5090413;28;20248;-71
2021/04/14 04:05:30;;;;;;;10.87;6.80;;;1.20;99.90;;;;;;5088607;28;20204;-71
2021/04/14 04:08:18;;;;;;;10.07;6.37;;;1.20;99.90;;;;;;5089511;28;21050;-71
2021/04/14 04:11:06;;;;;;;10.17;6.77;;;1.20;99.90;;;;;;5090119;28;21024;-71
2021/04/14 04:13:53;;;;;;;9.97;6.43;;;1.20;99.90;;;;;;5083747;28;20251;-71
2021/04/14 04:16:40;;;;;;;9.00;6.10;;;1.20;99.90;;;;;;5093171;28;20212;-71
2021/04/14 04:19:28;;;;;;;9.47;5.53;;;1.20;99.90;;;;;;5092687;28;20308;-71
2021/04/14 04:22:17;;;;;;;11.13;6.47;;;1.20;99.90;;;;;;5093098;28;20694;-71
2021/04/14 04:25:05;;;;;;;13.07;6.43;;;1.20;99.90;;;;;;5093331;28;20219;-72
2021/04/14 04:27:53;;;;;;;9.30;6.50;;;1.30;99.90;;;;;;5092715;28;20215;-71
2021/04/14 04:30:40;;;;;;;10.70;6.30;;;1.30;99.90;;;;;;5092720;28;20199;-72
2021/04/14 04:33:27;;;;;;;11.37;7.20;;;1.30;99.90;;;;;;5092968;28;20219;-71
2021/04/14 04:36:15;;;;;;;9.67;6.57;;;1.30;99.90;;;;;;5092295;28;20203;-72
2021/04/14 04:39:02;;;;;;;12.23;6.57;;;1.30;99.90;;;;;;5092486;28;20282;-71
2021/04/14 04:41:49;;;;;;;10.67;6.67;;;1.30;99.90;;;;;;5091361;28;20203;-71
2021/04/14 04:44:37;;;;;;;10.70;6.80;;;1.40;99.90;;;;;;5091686;28;20188;-71
2021/04/14 04:47:24;;;;;;;13.57;6.67;;;1.40;99.90;;;;;;5092476;28;20192;-71
2021/04/14 04:50:12;;;;;;;9.53;6.37;;;1.40;99.90;;;;;;5092924;28;20225;-71
2021/04/14 04:53:00;;;;;;;11.17;6.67;;;1.40;99.90;;;;;;5092652;28;20212;-71
2021/04/14 04:55:47;;;;;;;12.37;7.63;;;1.40;99.90;;;;;;5092898;28;20192;-71
2021/04/14 04:58:34;;;;;;;14.07;7.30;;;1.50;99.90;;;;;;5092764;28;20200;-71
2021/04/14 05:01:23;;;;;;;11.97;7.67;;;1.50;99.90;;;;;;5082781;28;20576;-71
2021/04/14 05:04:10;;;;;;;13.73;8.03;;;1.60;99.90;;;;;;5092602;28;20281;-71
2021/04/14 05:06:58;;;;;;;12.10;6.87;;;1.60;99.90;;;;;;5083683;28;20297;-71
2021/04/14 05:09:45;;;;;;;12.27;6.83;;;1.50;99.90;;;;;;5091831;28;20666;-71
2021/04/14 05:12:32;;;;;;;12.37;7.10;;;1.60;99.90;;;;;;5083972;28;20199;-71
2021/04/14 05:15:21;;;;;;;11.73;7.33;;;1.60;99.90;;;;;;5092495;28;20707;-71
2021/04/14 05:18:09;;;;;;;10.93;7.07;;;1.60;99.90;;;;;;5084993;28;20582;-71
2021/04/14 05:20:56;;;;;;;12.97;7.17;;;1.60;99.90;;;;;;5093421;28;20200;-71
2021/04/14 05:23:43;;;;;;;12.47;7.17;;;1.60;99.90;;;;;;5093647;28;20204;-71
2021/04/14 05:26:30;;;;;;;14.57;8.33;;;1.60;99.90;;;;;;5092527;28;20196;-71
2021/04/14 05:29:17;;;;;;;13.90;8.10;;;1.60;99.90;;;;;;5086679;28;20200;-71
2021/04/14 05:32:05;;;;;;;57.70;19.23;;;1.70;99.90;;;;;;5091566;28;20200;-71
2021/04/14 05:34:53;;;;;;;58.97;23.03;;;1.60;99.90;;;;;;5080202;28;20199;-71
2021/04/14 05:37:40;;;;;;;20.27;9.07;;;1.70;99.90;;;;;;5092514;28;20200;-70
2021/04/14 05:40:27;;;;;;;81.03;27.13;;;1.80;99.90;;;;;;5092909;28;20200;-69
2021/04/14 05:43:16;;;;;;;74.57;24.90;;;1.80;99.90;;;;;;5086326;28;20933;-69
2021/04/14 05:46:04;;;;;;;54.63;23.87;;;1.80;99.90;;;;;;5088511;28;20288;-69
2021/04/14 05:48:51;;;;;;;33.63;16.17;;;1.80;99.90;;;;;;5086746;28;20283;-69
2021/04/14 05:51:39;;;;;;;22.47;11.63;;;1.90;99.90;;;;;;5092457;28;20582;-70
2021/04/14 05:54:26;;;;;;;17.83;10.10;;;1.90;99.90;;;;;;5083940;28;20231;-70
2021/04/14 05:57:14;;;;;;;17.03;9.37;;;1.90;99.90;;;;;;5092295;28;21012;-70
2021/04/14 06:00:01;;;;;;;21.57;11.10;;;1.90;99.90;;;;;;5092551;28;20715;-69
2021/04/14 06:02:48;;;;;;;15.77;8.27;;;2.00;99.90;;;;;;5090885;28;21001;-69
2021/04/14 06:05:35;;;;;;;25.50;8.83;;;2.10;99.90;;;;;;5090166;28;20204;-69
2021/04/14 06:08:23;;;;;;;10.80;6.30;;;2.10;99.90;;;;;;5079370;28;20526;-69
2021/04/14 06:11:10;;;;;;;11.03;5.93;;;2.20;99.90;;;;;;5084928;28;20269;-70
2021/04/14 06:13:59;;;;;;;10.43;6.30;;;2.20;99.90;;;;;;5091250;28;20219;-69
2021/04/14 06:41:00;;;;;;;9.47;4.93;;;2.80;99.90;;;;;;5071006;28;20655;-70
2021/04/14 06:43:54;;;;;;;11.60;5.70;;;2.70;99.90;;;;;;5076435;28;20192;-69
2021/04/14 06:46:41;;;;;;;8.83;5.17;;;2.50;99.90;;;;;;5090191;28;20199;-69
2021/04/14 06:49:33;;;;;;;9.73;4.87;;;2.50;99.90;;;;;;5091322;28;20639;-70
2021/04/14 06:52:25;;;;;;;7.70;4.87;;;2.40;99.90;;;;;;5090423;28;20294;-70
2021/04/14 06:55:14;;;;;;;9.97;5.77;;;2.30;99.90;;;;;;5087537;28;20662;-70
2021/04/14 06:58:06;;;;;;;11.67;6.23;;;2.30;99.90;;;;;;5088820;28;20200;-69
2021/04/14 07:00:55;;;;;;;10.33;5.93;;;2.30;99.90;;;;;;5089980;28;20200;-70
2021/04/14 07:03:49;;;;;;;14.07;6.33;;;2.50;99.90;;;;;;5090461;28;20203;-70
2021/04/14 07:06:39;;;;;;;12.20;5.70;;;2.70;99.90;;;;;;5089722;28;20294;-69
2021/04/14 07:09:29;;;;;;;26.73;9.97;;;2.80;99.90;;;;;;5089831;28;20680;-69
2021/04/14 07:12:18;;;;;;;15.37;5.90;;;2.90;99.90;;;;;;5068450;28;20200;-69
2021/04/14 07:15:08;;;;;;;17.43;6.37;;;3.00;99.90;;;;;;5070355;28;20211;-69
2021/04/14 07:18:02;;;;;;;18.07;7.47;;;3.10;99.90;;;;;;5069276;28;20224;-69
2021/04/14 07:20:51;;;;;;;12.10;5.23;;;3.30;99.90;;;;;;5079681;28;20532;-69
2021/04/14 07:23:43;;;;;;;15.70;6.40;;;3.40;99.90;;;;;;5090404;28;20196;-69
2021/04/14 07:26:34;;;;;;;7.23;3.43;;;3.60;99.90;;;;;;5089738;28;20204;-69
2021/04/14 07:29:29;;;;;;;15.33;5.70;;;3.90;99.90;;;;;;5090693;28;20243;-69
2021/04/14 07:32:20;;;;;;;9.90;4.30;;;3.90;99.90;;;;;;5090375;28;20275;-69
2021/04/14 07:35:13;;;;;;;9.37;3.80;;;3.90;99.90;;;;;;5090398;28;20212;-69
2021/04/14 07:38:03;;;;;;;12.20;5.03;;;3.90;99.90;;;;;;5078791;28;20539;-69
2021/04/14 07:41:07;;;;;;;10.30;4.23;;;3.90;99.90;;;;;;5083677;28;20250;-68
2021/04/14 07:44:01;;;;;;;6.03;3.10;;;4.20;99.90;;;;;;5070794;28;20760;-69
2021/04/14 07:46:48;;;;;;;5.53;2.40;;;4.40;99.90;;;;;;5081123;28;20292;-69
2021/04/14 07:49:36;;;;;;;4.43;1.83;;;4.50;99.90;;;;;;5088608;28;20262;-70
2021/04/14 07:52:25;;;;;;;11.90;3.50;;;4.30;99.90;;;;;;5084427;28;20764;-69
2021/04/14 07:55:23;;;;;;;3.60;1.97;;;4.20;99.90;;;;;;5096317;28;20292;-69
2021/04/14 07:58:13;;;;;;;8.60;4.13;;;4.20;99.90;;;;;;5089214;28;20214;-69
2021/04/14 08:01:10;;;;;;;5.87;1.87;;;4.10;99.90;;;;;;5093257;28;20208;-69
2021/04/14 08:04:09;;;;;;;15.07;4.97;;;4.10;99.90;;;;;;5094824;28;20350;-69
2021/04/14 08:07:10;;;;;;;7.47;3.20;;;4.40;99.90;;;;;;5086355;28;20285;-69
2021/04/14 08:34:57;;;;;;;4.80;1.60;;;4.90;99.90;;;;;;4745826;30;20248;-70
2021/04/14 08:37:47;;;;;;;3.87;2.20;;;5.10;99.90;;;;;;4750070;30;20210;-70
2021/04/14 08:40:45;;;;;;;5.97;2.97;;;4.80;99.90;;;;;;4745274;30;20212;-70
2021/04/14 08:43:37;;;;;;;7.17;3.10;;;4.90;99.90;;;;;;4750737;29;20673;-70
2021/04/14 08:46:29;;;;;;;2.20;1.37;;;5.10;99.90;;;;;;4750159;30;20213;-70
2021/04/14 08:49:21;;;;;;;4.03;2.10;;;5.00;99.90;;;;;;4757154;29;20696;-69
2021/04/14 08:52:16;;;;;;;9.47;5.43;;;5.10;99.90;;;;;;4803767;29;20379;-69
2021/04/14 08:55:05;;;;;;;22.03;9.80;;;5.30;99.90;;;;;;4804012;29;20679;-69
2021/04/14 08:57:53;;;;;;;8.03;3.57;;;5.50;99.90;;;;;;4827393;29;20658;-69
2021/04/14 09:00:41;;;;;;;10.87;5.37;;;5.80;99.90;;;;;;4906288;28;20204;-70
2021/04/14 09:03:33;;;;;;;4.90;2.70;;;5.80;99.90;;;;;;4970426;28;20256;-70
2021/04/14 09:06:21;;;;;;;6.97;3.10;;;5.80;99.90;;;;;;4970816;28;20223;-70
2021/04/14 09:09:13;;;;;;;5.87;2.80;;;6.00;99.90;;;;;;4970246;28;20215;-70
2021/04/14 09:12:03;;;;;;;8.73;3.67;;;6.00;99.90;;;;;;5030242;28;20756;-70
2021/04/14 09:14:51;;;;;;;7.93;4.40;;;6.00;99.90;;;;;;5051793;28;20221;-70
2021/04/14 09:17:38;;;;;;;7.37;3.47;;;6.10;99.90;;;;;;5051024;28;20205;-69
2021/04/14 09:20:29;;;;;;;6.20;3.70;;;6.10;99.90;;;;;;5051590;28;20371;-70
2021/04/14 09:23:18;;;;;;;7.23;4.20;;;6.00;99.90;;;;;;5051574;28;20557;-70
2021/04/14 09:26:15;;;;;;;10.97;4.57;;;6.20;99.90;;;;;;5051872;28;20828;-70
2021/04/14 09:29:02;;;;;;;12.57;5.23;;;6.30;99.90;;;;;;5051012;28;20201;-70
2021/04/14 09:31:51;;;;;;;13.70;4.83;;;6.20;99.90;;;;;;5050858;28;20193;-70
2021/04/14 09:34:40;;;;;;;8.47;4.23;;;6.00;99.90;;;;;;5051066;28;20769;-70
2021/04/14 09:37:32;;;;;;;12.43;5.30;;;5.90;99.90;;;;;;5052380;28;20251;-70
2021/04/14 09:40:30;;;;;;;8.83;4.67;;;5.80;99.90;;;;;;5051227;28;20209;-70
2021/04/14 09:43:34;;;;;;;6.87;4.37;;;5.70;99.90;;;;;;5051867;28;20224;-70
2021/04/14 09:46:29;;;;;;;14.00;7.03;;;5.70;99.90;;;;;;5051788;28;20646;-70
2021/04/14 09:49:17;;;;;;;7.57;5.10;;;6.00;99.90;;;;;;5052012;28;20227;-71
2021/04/14 09:52:07;;;;;;;10.63;4.40;;;6.20;99.90;;;;;;5051673;28;21045;-70
2021/04/14 09:55:17;;;;;;;10.30;4.80;;;6.10;99.90;;;;;;5086157;28;20219;-70
2021/04/14 09:58:07;;;;;;;13.97;7.07;;;5.80;99.90;;;;;;5090557;28;20227;-70
2021/04/14 10:00:57;;;;;;;10.30;5.20;;;6.00;99.90;;;;;;5090509;28;20231;-70
2021/04/14 10:03:47;;;;;;;11.13;5.40;;;6.00;99.90;;;;;;5091601;28;20199;-70
2021/04/14 10:06:35;;;;;;;21.93;9.40;;;5.80;99.90;;;;;;5085217;28;20243;-70
2021/04/14 10:09:24;;;;;;;9.50;5.50;;;5.70;99.90;;;;;;5091580;28;20213;-70
2021/04/14 10:12:37;;;;;;;8.47;5.20;;;5.80;99.90;;;;;;5088747;28;20662;-70
2021/04/14 10:15:30;;;;;;;12.53;6.00;;;6.00;99.90;;;;;;5090422;28;20199;-71
2021/04/14 10:18:21;;;;;;;12.77;6.00;;;6.40;99.90;;;;;;5091409;28;20674;-70
2021/04/14 10:21:14;;;;;;;10.30;5.40;;;6.90;99.90;;;;;;5091476;28;20196;-70
2021/04/14 10:24:04;;;;;;;10.50;6.13;;;7.00;99.90;;;;;;5091323;28;20195;-70
2021/04/14 10:26:52;;;;;;;10.73;5.30;;;7.50;99.90;;;;;;5089507;28;20743;-70
2021/04/14 10:29:41;;;;;;;17.10;7.63;;;7.30;99.90;;;;;;5090484;28;20200;-70
2021/04/14 10:32:30;;;;;;;12.53;5.37;;;7.20;99.90;;;;;;5091089;28;20323;-70
2021/04/14 10:35:24;;;;;;;12.60;6.43;;;6.90;99.90;;;;;;5091093;28;20223;-70
2021/04/14 10:38:16;;;;;;;8.73;5.27;;;7.00;99.90;;;;;;5078188;28;20241;-70
2021/04/14 10:41:13;;;;;;;12.63;5.27;;;7.00;99.90;;;;;;5070112;28;20724;-70
2021/04/14 10:44:01;;;;;;;9.77;5.80;;;7.00;99.90;;;;;;5069993;28;20192;-70
2021/04/14 10:46:48;;;;;;;10.30;5.73;;;7.20;99.90;;;;;;5068770;28;20238;-71
2021/04/14 10:49:36;;;;;;;10.83;5.73;;;7.40;99.90;;;;;;5070029;28;20571;-71
2021/04/14 10:52:27;;;;;;;12.40;6.50;;;7.10;99.90;;;;;;5069449;28;20561;-71
2021/04/14 10:55:16;;;;;;;10.63;6.60;;;6.90;99.90;;;;;;5069299;28;20263;-71
2021/04/14 10:58:04;;;;;;;12.27;6.93;;;6.80;99.90;;;;;;5068877;28;20201;-71
2021/04/14 11:00:51;;;;;;;10.43;5.80;;;7.00;99.90;;;;;;5069088;28;20283;-70
2021/04/14 11:03:39;;;;;;;10.07;5.97;;;7.20;99.90;;;;;;5070747;28;20279;-70
2021/04/14 11:06:27;;;;;;;10.07;6.40;;;7.20;99.90;;;;;;5070521;28;20223;-71
2021/04/14 11:09:15;;;;;;;12.93;5.73;;;7.20;99.90;;;;;;5069600;28;20314;-71
2021/04/14 11:12:07;;;;;;;9.20;5.43;;;7.10;99.90;;;;;;5070558;28;20257;-71
2021/04/14 11:14:56;;;;;;;10.53;5.77;;;6.70;99.90;;;;;;5068844;28;20584;-70
2021/04/14 11:17:43;;;;;;;10.13;5.27;;;6.60;99.90;;;;;;5070526;28;20196;-70
2021/04/14 11:20:41;;;;;;;8.27;5.17;;;6.50;99.90;;;;;;5064398;28;20212;-70
2021/04/14 11:23:29;;;;;;;9.97;4.83;;;6.70;99.90;;;;;;5070643;28;20200;-70
2021/04/14 11:26:19;;;;;;;8.47;4.70;;;7.00;99.90;;;;;;5073914;28;20223;-71
2021/04/14 11:29:07;;;;;;;9.30;4.53;;;7.40;99.90;;;;;;5072749;28;20200;-70
2021/04/14 11:31:55;;;;;;;11.33;5.20;;;7.90;99.90;;;;;;5072539;28;20201;-71
2021/04/14 11:34:43;;;;;;;11.07;4.87;;;8.50;99.90;;;;;;5073583;28;20219;-71
2021/04/14 11:37:41;;;;;;;10.63;4.87;;;8.80;99.90;;;;;;5068035;28;20642;-71
2021/04/14 11:40:40;;;;;;;7.80;3.67;;;8.90;99.90;;;;;;5067251;28;20252;-71
2021/04/14 11:43:34;;;;;;;12.20;5.13;;;8.80;99.90;;;;;;5073442;28;20724;-70
2021/04/14 11:46:31;;;;;;;10.03;3.77;;;8.90;99.90;;;;;;5073407;28;20226;-70
2021/04/14 11:49:25;;;;;;;12.67;5.60;;;9.00;99.90;;;;;;5073434;28;20208;-70
2021/04/14 11:52:20;;;;;;;9.93;4.07;;;8.60;99.90;;;;;;5073970;28;20559;-70
2021/04/14 11:55:12;;;;;;;11.03;4.37;;;8.30;99.90;;;;;;5073622;28;20729;-70
2021/04/14 11:58:00;;;;;;;11.80;4.40;;;8.20;99.90;;;;;;5073745;28;20426;-70
2021/04/14 12:00:49;;;;;;;8.97;3.70;;;8.30;99.90;;;;;;5072373;28;20588;-70
2021/04/14 12:03:37;;;;;;;6.40;2.60;;;8.60;99.90;;;;;;5073758;28;20197;-71
2021/04/14 12:06:25;;;;;;;13.27;3.60;;;8.50;99.90;;;;;;5073177;28;20229;-71
2021/04/14 12:09:12;;;;;;;9.87;2.87;;;7.80;99.90;;;;;;5073588;28;20549;-71
2021/04/14 12:12:01;;;;;;;16.63;5.30;;;7.80;99.90;;;;;;5072296;28;20607;-71
2021/04/14 12:14:48;;;;;;;14.27;5.33;;;7.50;99.90;;;;;;5072807;28;20216;-71
2021/04/14 12:17:36;;;;;;;9.77;3.10;;;7.50;99.90;;;;;;5073591;28;20200;-71
2021/04/14 12:20:49;;;;;;;8.50;3.47;;;7.20;99.90;;;;;;5073593;28;20201;-70
2021/04/14 12:23:36;;;;;;;7.70;2.63;;;6.90;99.90;;;;;;5068305;28;20223;-70
2021/04/14 12:26:24;;;;;;;4.60;2.60;;;6.40;99.90;;;;;;5074046;28;20197;-70
2021/04/14 12:29:11;;;;;;;4.17;2.50;;;6.10;99.90;;;;;;5073199;28;20693;-71
2021/04/14 12:31:59;;;;;;;7.83;2.90;;;6.20;99.90;;;;;;5072736;28;20196;-70
2021/04/14 12:34:47;;;;;;;9.23;3.13;;;6.30;99.90;;;;;;5070622;28;20243;-70
2021/04/14 12:37:34;;;;;;;10.67;3.00;;;6.20;99.90;;;;;;5071810;28;20232;-70
2021/04/14 12:40:22;;;;;;;9.83;3.00;;;6.20;99.90;;;;;;5073578;28;20204;-71
2021/04/14 12:43:09;;;;;;;7.83;3.20;;;6.00;99.90;;;;;;5072834;28;20219;-70
2021/04/14 12:45:57;;;;;;;7.00;3.70;;;5.80;99.90;;;;;;5073344;28;20243;-70
2021/04/14 12:48:45;;;;;;;10.83;3.97;;;5.30;99.90;;;;;;5072250;28;20588;-70
2021/04/14 12:51:35;;;;;;;10.23;4.37;;;4.80;99.90;;;;;;5072826;28;20212;-70
2021/04/14 12:54:30;;;;;;;7.80;3.17;;;4.70;99.90;;;;;;5071893;28;20594;-70
2021/04/14 12:57:20;;;;;;;10.60;3.80;;;4.70;99.90;;;;;;5072360;28;20295;-70
2021/04/14 13:00:09;;;;;;;8.30;3.30;;;4.80;99.90;;;;;;5071619;28;20211;-70
2021/04/14 13:02:58;;;;;;;10.77;4.03;;;5.00;99.90;;;;;;5071941;28;20253;-70
2021/04/14 13:05:47;;;;;;;10.17;3.67;;;5.20;99.90;;;;;;5072573;28;20279;-70
2021/04/14 13:08:37;;;;;;;11.07;3.47;;;5.20;99.90;;;;;;5072406;28;20209;-71
2021/04/14 13:11:27;;;;;;;7.17;3.57;;;5.30;99.90;;;;;;5072472;28;20201;-71
2021/04/14 13:14:15;;;;;;;12.87;4.83;;;5.20;99.90;;;;;;5071657;28;20698;-71
2021/04/14 13:17:06;;;;;;;9.13;4.70;;;5.20;99.90;;;;;;5072280;28;20275;-70
2021/04/14 13:19:54;;;;;;;10.97;4.63;;;5.10;99.90;;;;;;5071557;28;20196;-70
2021/04/14 13:22:42;;;;;;;16.40;6.47;;;5.00;99.90;;;;;;5072450;28;20192;-70
2021/04/14 13:25:34;;;;;;;11.63;4.97;;;4.90;99.90;;;;;;5071115;28;20196;-70
2021/04/14 13:28:23;;;;;;;13.17;5.00;;;4.90;99.90;;;;;;5072006;28;20211;-71
2021/04/14 13:31:16;;;;;;;14.67;5.67;;;4.80;99.90;;;;;;5063276;28;20200;-71
2021/04/14 13:34:13;;;;;;;17.40;7.07;;;4.80;99.90;;;;;;5071269;28;20270;-70
2021/04/14 13:37:03;;;;;;;16.40;6.57;;;4.60;99.90;;;;;;5071230;28;20196;-71
2021/04/14 13:39:55;;;;;;;11.30;4.97;;;4.50;99.90;;;;;;5071238;28;20201;-71
2021/04/14 13:43:02;;;;;;;12.57;4.57;;;4.50;99.90;;;;;;5066345;28;20209;-71
2021/04/14 13:45:52;;;;;;;11.87;5.10;;;4.30;99.90;;;;;;5072729;28;20582;-70
2021/04/14 13:48:52;;;;;;;11.30;5.10;;;4.30;99.90;;;;;;5072961;28;20216;-71
2021/04/14 13:51:42;;;;;;;11.87;4.90;;;4.40;99.90;;;;;;5069496;28;20257;-71
2021/04/14 13:54:32;;;;;;;11.20;4.97;;;4.60;99.90;;;;;;5076484;28;20251;-71
2021/04/14 13:57:22;;;;;;;16.50;6.37;;;4.70;99.90;;;;;;5073317;28;20204;-70
2021/04/14 14:03:55;;;;;;;15.87;7.57;;;5.20;99.90;;;;;;5070764;28;20294;-71
2021/04/14 14:06:48;;;;;;;14.27;7.70;;;5.40;99.90;;;;;;5070804;28;20602;-71
2021/04/14 14:09:36;;;;;;;21.13;8.90;;;5.60;99.90;;;;;;5069825;28;20224;-71
2021/04/14 14:12:25;;;;;;;11.67;6.67;;;5.70;99.90;;;;;;5080590;28;20245;-71
2021/04/14 14:19:02;;;;;;;12.03;5.50;;;6.10;99.90;;;;;;5073316;28;20233;-70
2021/04/14 14:21:49;;;;;;;9.63;5.10;;;6.10;99.90;;;;;;5088524;28;20196;-71
2021/04/14 14:24:39;;;;;;;11.37;4.73;;;6.00;99.90;;;;;;5077800;28;20658;-71
2021/04/14 14:27:26;;;;;;;12.13;5.30;;;5.90;99.90;;;;;;5088999;28;20285;-71
2021/04/14 14:30:16;;;;;;;16.13;7.10;;;5.80;99.90;;;;;;5090610;28;20563;-71
2021/04/14 14:33:04;;;;;;;15.57;7.30;;;5.70;99.90;;;;;;5090150;28;20249;-71
2021/04/14 14:35:54;;;;;;;9.70;5.30;;;5.60;99.90;;;;;;5091254;28;20200;-71
2021/04/14 14:38:42;;;;;;;10.73;4.53;;;5.50;99.90;;;;;;5074250;28;20756;-71
2021/04/14 14:41:30;;;;;;;6.83;4.10;;;5.40;99.90;;;;;;5068336;28;20701;-71
2021/04/14 14:51:42;;;;;;;8.33;4.43;;;5.00;99.90;;;;;;4893534;29;21692;-72
2021/04/14 14:54:31;;;;;;;17.23;6.80;;;4.80;99.90;;;;;;4904128;29;20273;-71
2021/04/14 14:57:22;;;;;;;13.73;5.77;;;4.80;99.90;;;;;;4913723;29;20248;-71
2021/04/14 15:00:14;;;;;;;10.97;4.37;;;4.70;99.90;;;;;;4919763;29;20209;-70
2021/04/14 15:03:01;;;;;;;7.63;3.67;;;4.60;99.90;;;;;;4914617;29;20765;-71
2021/04/14 15:05:48;;;;;;;10.47;4.73;;;4.40;99.90;;;;;;4917574;29;20193;-72
2021/04/14 15:08:37;;;;;;;6.47;3.63;;;4.30;99.90;;;;;;4918313;29;20202;-71
2021/04/14 15:11:24;;;;;;;16.73;5.20;;;4.10;99.90;;;;;;4920790;29;20213;-71
2021/04/14 15:14:11;;;;;;;15.60;6.07;;;3.90;99.90;;;;;;4921483;29;20221;-70
2021/04/14 15:16:58;;;;;;;25.23;11.87;;;3.80;99.90;;;;;;4911055;29;20202;-72
2021/04/14 15:19:47;;;;;;;12.27;5.93;;;3.80;99.90;;;;;;4911469;29;20206;-71
2021/04/14 15:22:34;;;;;;;40.37;18.00;;;3.70;99.90;;;;;;4910332;29;20210;-71
2021/04/14 15:25:22;;;;;;;30.27;13.43;;;3.70;99.90;;;;;;5010550;28;20223;-71
2021/04/14 15:28:09;;;;;;;14.27;7.40;;;3.70;99.90;;;;;;5070456;28;20196;-71
2021/04/14 15:30:56;;;;;;;11.50;5.30;;;3.70;99.90;;;;;;5069817;28;20204;-71
2021/04/14 15:33:44;;;;;;;12.63;5.00;;;3.60;99.90;;;;;;5069871;28;20216;-72
2021/04/14 15:36:33;;;;;;;9.77;5.27;;;3.60;99.90;;;;;;5068397;28;20323;-71
2021/04/14 15:39:21;;;;;;;9.27;4.20;;;3.40;99.90;;;;;;5068413;28;20208;-70
2021/04/14 15:42:09;;;;;;;15.30;6.50;;;3.40;99.90;;;;;;5068577;28;20208;-69
2021/04/14 15:44:56;;;;;;;18.07;8.30;;;3.40;99.90;;;;;;5070277;28;20192;-70
2021/04/14 15:47:44;;;;;;;10.67;5.57;;;3.50;99.90;;;;;;5069774;28;20759;-70